createdAt,value
2022-11-07T00:01:48.725Z,21.83
2022-11-07T00:04:52.822Z,18.27
2022-11-07T00:07:55.619Z,19.20
2022-11-07T00:10:58.733Z,19.40
2022-11-07T00:14:01.659Z,19.00
2022-11-07T00:17:04.492Z,20.73
2022-11-07T00:20:15.470Z,19.73
2022-11-07T00:23:18.259Z,20.47
2022-11-07T00:26:21.044Z,20.50
2022-11-07T00:29:24.178Z,17.63
2022-11-07T00:32:26.996Z,18.93
2022-11-07T00:35:31.289Z,16.90
2022-11-07T00:38:34.091Z,18.40
2022-11-07T00:41:38.203Z,17.17
2022-11-07T00:44:41.076Z,18.40
2022-11-07T00:47:43.892Z,17.50
2022-11-07T00:50:51.000Z,20.67
2022-11-07T00:53:54.201Z,18.20
2022-11-07T00:56:57.015Z,18.30
2022-11-07T00:59:59.843Z,19.80
2022-11-07T01:03:20.205Z,18.33
2022-11-07T01:06:24.729Z,19.27
2022-11-07T01:09:27.783Z,18.40
2022-11-07T01:12:30.846Z,19.23
2022-11-07T01:15:33.643Z,17.50
2022-11-07T01:18:36.523Z,19.90
2022-11-07T01:21:42.384Z,16.53
2022-11-07T01:24:45.142Z,18.00
2022-11-07T01:27:49.480Z,16.47
2022-11-07T01:30:52.354Z,17.60
2022-11-07T01:33:55.389Z,16.47
2022-11-07T01:37:08.309Z,19.43
2022-11-07T01:40:12.195Z,19.10
2022-11-07T01:43:15.277Z,16.87
2022-11-07T01:46:19.187Z,18.23
2022-11-07T01:49:26.887Z,16.50
2022-11-07T01:52:36.733Z,17.73
2022-11-07T01:55:39.535Z,21.07
2022-11-07T01:58:43.077Z,18.33
2022-11-07T02:01:46.012Z,17.13
2022-11-07T02:04:49.952Z,16.80
2022-11-07T02:07:58.603Z,17.73
2022-11-07T02:11:02.815Z,17.67
2022-11-07T02:14:07.334Z,16.23
2022-11-07T02:17:12.364Z,16.03
2022-11-07T02:20:15.279Z,15.37
2022-11-07T02:23:26.524Z,17.50
2022-11-07T02:26:32.122Z,16.57
2022-11-07T02:29:38.936Z,17.10
2022-11-07T02:32:41.790Z,18.37
2022-11-07T02:35:45.739Z,16.00
2022-11-07T02:38:51.615Z,15.00
2022-11-07T02:41:57.476Z,16.63
2022-11-07T02:45:00.279Z,16.33
2022-11-07T02:48:03.259Z,15.47
2022-11-07T02:51:06.163Z,15.93
2022-11-07T02:54:08.947Z,14.60
2022-11-07T02:57:13.108Z,14.40
2022-11-07T03:00:16.880Z,14.07
2022-11-07T03:03:21.031Z,14.07
2022-11-07T03:06:26.541Z,14.97
2022-11-07T03:09:30.655Z,14.47
2022-11-07T03:12:34.811Z,14.17
2022-11-07T03:15:37.715Z,15.90
2022-11-07T03:18:40.707Z,15.20
2022-11-07T03:21:43.566Z,13.23
2022-11-07T03:24:46.354Z,14.00
2022-11-07T03:27:51.296Z,12.97
2022-11-07T03:30:54.670Z,13.30
2022-11-07T03:33:58.245Z,12.43
2022-11-07T03:37:01.306Z,13.23
2022-11-07T03:40:06.061Z,15.70
2022-11-07T03:43:10.190Z,13.47
2022-11-07T03:46:13.709Z,13.27
2022-11-07T03:49:16.503Z,12.77
2022-11-07T03:52:19.223Z,12.40
2022-11-07T03:55:21.996Z,11.80
2022-11-07T03:58:27.229Z,12.30
2022-11-07T04:01:30.452Z,12.97
2022-11-07T04:04:33.339Z,11.07
2022-11-07T04:07:36.163Z,11.83
2022-11-07T04:10:38.936Z,11.07
2022-11-07T04:14:05.056Z,11.50
2022-11-07T04:17:20.342Z,10.83
2022-11-07T04:20:23.383Z,10.00
2022-11-07T04:23:29.903Z,11.60
2022-11-07T04:26:50.181Z,11.03
2022-11-07T04:29:54.888Z,11.00
2022-11-07T04:32:59.207Z,11.13
2022-11-07T04:36:01.966Z,10.30
2022-11-07T04:39:04.907Z,11.83
2022-11-07T04:42:07.707Z,10.67
2022-11-07T04:45:15.925Z,11.80
2022-11-07T04:48:19.468Z,10.83
2022-11-07T04:51:24.394Z,11.17
2022-11-07T04:54:39.166Z,11.17
2022-11-07T04:57:41.899Z,10.87
2022-11-07T05:00:46.035Z,10.70
2022-11-07T05:03:48.763Z,10.60
2022-11-07T05:06:52.754Z,11.33
2022-11-07T05:10:15.789Z,10.90
2022-11-07T05:13:22.729Z,10.47
2022-11-07T05:16:27.280Z,10.73
2022-11-07T05:19:37.591Z,11.00
2022-11-07T05:22:59.401Z,10.00
2022-11-07T05:26:02.187Z,9.97
2022-11-07T05:29:05.010Z,10.27
2022-11-07T05:32:09.223Z,9.60
2022-11-07T05:35:12.010Z,9.90
2022-11-07T05:38:14.982Z,10.00
2022-11-07T05:41:20.896Z,9.83
2022-11-07T05:44:23.705Z,9.33
2022-11-07T05:47:27.833Z,9.27
2022-11-07T05:50:31.357Z,9.33
2022-11-07T05:53:34.757Z,9.13
2022-11-07T05:56:38.487Z,8.97
2022-11-07T05:59:41.311Z,8.90
2022-11-07T06:02:46.160Z,9.03
2022-11-07T06:05:49.302Z,9.00
2022-11-07T06:08:53.133Z,8.70
2022-11-07T06:11:55.968Z,8.20
2022-11-07T06:14:59.145Z,8.27
2022-11-07T06:18:04.702Z,8.70
2022-11-07T06:21:08.810Z,8.13
2022-11-07T06:24:15.414Z,7.90
2022-11-07T06:27:21.176Z,7.80
2022-11-07T06:30:23.911Z,8.53
2022-11-07T06:33:29.871Z,7.77
2022-11-07T06:36:32.644Z,7.87
2022-11-07T06:39:35.392Z,7.73
2022-11-07T06:42:38.603Z,8.17
2022-11-07T06:45:41.419Z,8.97
2022-11-07T06:48:45.615Z,7.90
2022-11-07T06:51:48.363Z,7.63
2022-11-07T06:54:51.148Z,8.47
2022-11-07T06:57:53.946Z,8.60
2022-11-07T07:01:02.471Z,7.50
2022-11-07T07:04:11.692Z,8.17
2022-11-07T07:07:14.456Z,7.70
2022-11-07T07:10:17.693Z,7.43
2022-11-07T07:13:21.045Z,8.30
2022-11-07T07:16:24.270Z,7.87
2022-11-07T07:19:28.428Z,8.03
2022-11-07T07:22:40.411Z,8.50
2022-11-07T07:25:43.270Z,7.90
2022-11-07T07:28:46.591Z,8.13
2022-11-07T07:31:49.370Z,7.30
2022-11-07T07:34:53.523Z,7.60
2022-11-07T07:37:56.326Z,7.23
2022-11-07T07:40:59.775Z,7.63
2022-11-07T07:44:02.606Z,7.77
2022-11-07T07:47:10.807Z,6.80
2022-11-07T07:50:15.880Z,7.47
2022-11-07T07:53:19.131Z,6.73
2022-11-07T07:56:22.005Z,6.10
2022-11-07T07:59:24.838Z,6.43
2022-11-07T08:02:31.748Z,6.57
2022-11-07T08:05:36.158Z,6.13
2022-11-07T08:08:39.043Z,6.23
2022-11-07T08:11:45.029Z,8.00
2022-11-07T08:14:47.807Z,6.20
2022-11-07T08:17:51.246Z,6.10
2022-11-07T08:20:56.713Z,5.53
2022-11-07T08:24:00.855Z,5.97
2022-11-07T08:27:03.651Z,6.17
2022-11-07T08:30:12.625Z,5.30
2022-11-07T08:33:25.485Z,5.87
2022-11-07T08:36:29.658Z,5.10
2022-11-07T08:39:32.450Z,6.03
2022-11-07T08:42:35.223Z,5.23
2022-11-07T08:45:38.093Z,5.30
2022-11-07T08:48:40.937Z,7.90
2022-11-07T08:51:45.062Z,4.53
2022-11-07T08:54:47.893Z,4.30
2022-11-07T08:57:50.681Z,4.90
2022-11-07T09:00:53.563Z,5.33
2022-11-07T09:03:58.305Z,4.70
2022-11-07T09:07:03.187Z,4.50
2022-11-07T09:10:06.629Z,4.57
2022-11-07T09:13:11.135Z,4.73
2022-11-07T09:16:19.063Z,4.20
2022-11-07T09:19:21.815Z,4.90
2022-11-07T09:22:26.020Z,4.60
2022-11-07T09:25:29.285Z,4.23
2022-11-07T09:28:32.073Z,4.70
2022-11-07T09:31:34.903Z,6.80
2022-11-07T09:34:37.760Z,4.20
2022-11-07T09:37:43.327Z,4.20
2022-11-07T09:40:51.039Z,5.03
2022-11-07T09:44:14.117Z,4.43
2022-11-07T09:47:22.461Z,4.87
2022-11-07T09:50:32.323Z,5.27
2022-11-07T09:53:40.882Z,4.13
2022-11-07T09:56:49.577Z,3.73
2022-11-07T09:59:56.473Z,4.23
2022-11-07T10:03:01.682Z,4.03
2022-11-07T10:06:12.033Z,4.73
2022-11-07T10:09:20.750Z,3.70
2022-11-07T10:12:57.382Z,3.57
2022-11-07T10:16:08.560Z,3.43
2022-11-07T10:19:31.754Z,3.90
2022-11-07T10:22:45.957Z,4.27
2022-11-07T10:25:55.984Z,4.63
2022-11-07T10:29:02.061Z,4.83
2022-11-07T10:32:17.500Z,4.60
2022-11-07T10:35:26.206Z,4.10
2022-11-07T10:38:30.399Z,3.47
2022-11-07T10:41:36.622Z,3.40
2022-11-07T10:44:41.537Z,3.13
2022-11-07T10:47:56.191Z,3.50
2022-11-07T10:51:02.909Z,3.60
2022-11-07T10:54:06.109Z,3.40
2022-11-07T10:57:14.322Z,3.80
2022-11-07T11:00:26.427Z,3.50
2022-11-07T11:03:43.931Z,3.13
2022-11-07T11:06:58.241Z,3.20
2022-11-07T11:10:02.657Z,4.60
2022-11-07T11:13:07.156Z,3.40
2022-11-07T11:16:23.977Z,3.63
2022-11-07T11:19:29.300Z,3.10
2022-11-07T11:22:32.305Z,3.50
2022-11-07T11:25:44.697Z,3.40
2022-11-07T11:28:54.337Z,3.43
2022-11-07T11:31:59.464Z,3.63
2022-11-07T11:35:20.248Z,4.50
2022-11-07T11:38:27.928Z,3.30
2022-11-07T11:41:41.255Z,3.30
2022-11-07T11:44:47.455Z,3.00
2022-11-07T11:48:00.158Z,3.10
2022-11-07T11:51:08.025Z,3.80
2022-11-07T11:54:15.513Z,3.63
2022-11-07T11:57:24.119Z,4.03
2022-11-07T12:00:28.690Z,3.13
2022-11-07T12:03:52.831Z,4.20
2022-11-07T12:07:03.108Z,3.00
2022-11-07T12:10:13.850Z,4.20
2022-11-07T12:13:23.698Z,5.37
2022-11-07T12:16:35.160Z,4.40
2022-11-07T12:19:46.561Z,3.00
2022-11-07T12:23:01.266Z,3.43
2022-11-07T12:26:11.316Z,3.77
2022-11-07T12:29:28.125Z,3.53
2022-11-07T12:32:42.750Z,3.77
2022-11-07T12:35:50.437Z,3.50
2022-11-07T12:39:18.418Z,5.10
2022-11-07T12:42:37.510Z,3.40
2022-11-07T12:45:58.389Z,4.63
2022-11-07T12:49:33.887Z,3.10
2022-11-07T12:52:53.130Z,3.20
2022-11-07T12:56:03.717Z,4.07
2022-11-07T12:59:12.874Z,5.57
2022-11-07T13:02:29.324Z,3.57
2022-11-07T13:05:54.841Z,6.13
2022-11-07T13:09:06.398Z,3.87
2022-11-07T13:12:17.280Z,3.43
2022-11-07T13:15:20.223Z,3.40
2022-11-07T13:18:27.428Z,3.57
2022-11-07T13:21:40.991Z,3.47
2022-11-07T13:24:53.275Z,3.63
2022-11-07T13:28:23.180Z,3.53
2022-11-07T13:31:35.375Z,3.40
2022-11-07T13:34:56.039Z,3.43
2022-11-07T13:38:08.238Z,3.67
2022-11-07T13:41:11.906Z,3.67
2022-11-07T13:44:24.386Z,3.43
2022-11-07T13:47:35.007Z,3.43
2022-11-07T13:50:44.724Z,4.27
2022-11-07T13:54:00.213Z,4.53
2022-11-07T13:57:08.035Z,6.07
2022-11-07T14:00:14.581Z,5.20
2022-11-07T14:03:26.687Z,3.63
2022-11-07T14:06:32.745Z,5.60
2022-11-07T14:09:37.443Z,4.70
2022-11-07T14:12:40.891Z,4.43
2022-11-07T14:15:47.926Z,3.47
2022-11-07T14:18:58.478Z,4.63
2022-11-07T14:22:01.481Z,4.07
2022-11-07T14:25:29.763Z,4.07
2022-11-07T14:28:36.708Z,4.10
2022-11-07T14:31:39.638Z,3.90
2022-11-07T14:34:48.556Z,6.00
2022-11-07T14:37:51.438Z,3.70
2022-11-07T14:40:57.191Z,5.10
2022-11-07T14:44:05.062Z,4.10
2022-11-07T14:47:08.865Z,5.80
2022-11-07T14:50:16.837Z,5.83
2022-11-07T14:53:25.268Z,6.00
2022-11-07T14:56:32.715Z,4.70
2022-11-07T14:59:35.569Z,6.40
2022-11-07T15:02:38.411Z,3.33
2022-11-07T15:05:45.677Z,5.17
2022-11-07T15:08:58.142Z,3.27
2022-11-07T15:12:02.958Z,3.17
2022-11-07T15:15:11.994Z,3.60
2022-11-07T15:18:26.617Z,4.43
2022-11-07T15:21:31.290Z,4.10
2022-11-07T15:24:41.079Z,4.70
2022-11-07T15:27:45.206Z,5.03
2022-11-07T15:30:48.437Z,3.80
2022-11-07T15:33:51.726Z,4.73
2022-11-07T15:36:54.508Z,4.03
2022-11-07T15:39:57.601Z,6.57
2022-11-07T15:43:01.723Z,4.73
2022-11-07T15:46:16.655Z,4.37
2022-11-07T15:49:19.648Z,3.97
2022-11-07T15:52:26.502Z,6.10
2022-11-07T15:55:29.324Z,4.73
2022-11-07T15:58:33.454Z,5.03
2022-11-07T16:01:39.158Z,4.37
2022-11-07T16:04:42.050Z,5.43
2022-11-07T16:07:46.451Z,6.83
2022-11-07T16:10:52.105Z,5.73
2022-11-07T16:14:21.560Z,4.80
2022-11-07T16:17:20.799Z,4.03
2022-11-07T16:20:24.732Z,4.97
2022-11-07T16:23:27.497Z,6.57
2022-11-07T16:26:31.739Z,5.47
2022-11-07T16:29:35.872Z,4.50
2022-11-07T16:32:38.676Z,5.67
2022-11-07T16:35:42.068Z,4.20
2022-11-07T16:38:45.099Z,3.67
2022-11-07T16:41:48.738Z,8.20
2022-11-07T16:44:52.994Z,8.97
2022-11-07T16:47:55.804Z,7.50
2022-11-07T16:50:59.033Z,4.37
2022-11-07T16:54:01.787Z,6.10
2022-11-07T16:57:04.976Z,6.43
2022-11-07T17:00:20.268Z,4.83
2022-11-07T17:03:23.732Z,6.73
2022-11-07T17:06:30.435Z,5.30
2022-11-07T17:09:33.225Z,4.50
2022-11-07T17:12:35.999Z,3.60
2022-11-07T17:15:41.074Z,10.23
2022-11-07T17:18:46.778Z,5.13
2022-11-07T17:21:49.591Z,4.37
2022-11-07T17:24:52.373Z,4.03
2022-11-07T17:27:56.505Z,5.47
2022-11-07T17:31:00.634Z,5.30
2022-11-07T17:34:03.503Z,4.73
2022-11-07T17:37:06.511Z,5.30
2022-11-07T17:40:20.200Z,5.00
2022-11-07T17:43:23.355Z,6.40
2022-11-07T17:46:30.115Z,4.60
2022-11-07T17:49:32.919Z,3.60
2022-11-07T17:52:35.675Z,4.33
2022-11-07T17:55:38.547Z,3.83
2022-11-07T17:58:42.756Z,4.20
2022-11-07T18:01:47.126Z,5.57
2022-11-07T18:04:50.033Z,6.43
2022-11-07T18:07:53.669Z,3.20
2022-11-07T18:11:01.589Z,4.33
2022-11-07T18:14:04.477Z,5.10
2022-11-07T18:17:08.789Z,5.03
2022-11-07T18:20:13.340Z,6.97
2022-11-07T18:23:16.215Z,4.33
2022-11-07T18:26:21.492Z,4.20
2022-11-07T18:29:24.446Z,4.00
2022-11-07T18:32:35.505Z,4.33
2022-11-07T18:35:41.481Z,4.13
2022-11-07T18:38:44.619Z,6.07
2022-11-07T18:41:48.172Z,4.97
2022-11-07T18:44:51.006Z,5.40
2022-11-07T18:48:04.350Z,5.47
2022-11-07T18:51:20.875Z,5.97
2022-11-07T18:54:26.122Z,5.90
2022-11-07T18:57:28.937Z,6.63
2022-11-07T19:00:32.435Z,4.73
2022-11-07T19:03:37.315Z,5.63
2022-11-07T19:06:57.151Z,7.27
2022-11-07T19:10:01.787Z,4.83
2022-11-07T19:13:08.143Z,6.37
2022-11-07T19:16:14.384Z,4.93
2022-11-07T19:19:18.484Z,6.90
2022-11-07T19:22:22.003Z,5.17
2022-11-07T19:25:24.812Z,4.97
2022-11-07T19:28:27.588Z,5.43
2022-11-07T19:31:34.655Z,5.93
2022-11-07T19:34:39.221Z,4.53
2022-11-07T19:37:41.994Z,5.97
2022-11-07T19:40:50.100Z,8.40
2022-11-07T19:43:54.266Z,7.07
2022-11-07T19:46:57.132Z,6.93
2022-11-07T19:50:01.235Z,6.93
2022-11-07T19:53:04.034Z,6.50
2022-11-07T19:56:08.616Z,6.83
2022-11-07T19:59:12.878Z,9.30
2022-11-07T20:02:32.470Z,8.90
2022-11-07T20:05:42.030Z,4.93
2022-11-07T20:08:46.220Z,6.37
2022-11-07T20:11:49.075Z,6.30
2022-11-07T20:14:52.785Z,9.47
2022-11-07T20:17:55.560Z,8.70
2022-11-07T20:21:04.094Z,5.90
2022-11-07T20:24:09.069Z,6.00
2022-11-07T20:27:11.856Z,7.20
2022-11-07T20:30:15.235Z,6.73
2022-11-07T20:33:18.346Z,6.67
2022-11-07T20:36:22.826Z,6.37
2022-11-07T20:39:25.629Z,8.63
2022-11-07T20:42:28.706Z,6.27
2022-11-07T20:45:31.787Z,6.70
2022-11-07T20:48:35.782Z,8.07
2022-11-07T20:51:40.607Z,8.63
2022-11-07T20:54:44.717Z,11.23
2022-11-07T20:57:48.668Z,7.17
2022-11-07T21:00:53.057Z,11.17
2022-11-07T21:03:55.902Z,5.90
2022-11-07T21:07:00.044Z,5.33
2022-11-07T21:10:03.191Z,5.80
2022-11-07T21:13:05.972Z,7.80
2022-11-07T21:16:10.080Z,5.90
2022-11-07T21:19:15.247Z,6.13
2022-11-07T21:22:19.313Z,5.70
2022-11-07T21:25:22.555Z,5.70
2022-11-07T21:28:26.258Z,8.47
2022-11-07T21:31:31.943Z,6.77
2022-11-07T21:34:37.139Z,5.73
2022-11-07T21:37:41.315Z,7.77
2022-11-07T21:40:44.096Z,5.60
2022-11-07T21:43:47.040Z,7.97
2022-11-07T21:46:49.902Z,9.43
2022-11-07T21:49:52.656Z,12.97
2022-11-07T21:52:57.933Z,10.53
2022-11-07T21:56:02.513Z,10.40
2022-11-07T21:59:08.019Z,7.27
2022-11-07T22:02:12.581Z,5.07
2022-11-07T22:05:21.240Z,5.93
2022-11-07T22:08:25.391Z,5.80
2022-11-07T22:11:28.343Z,6.23
2022-11-07T22:14:31.109Z,5.13
2022-11-07T22:17:34.241Z,6.73
2022-11-07T22:20:38.867Z,7.50
2022-11-07T22:23:43.022Z,6.50
2022-11-07T22:26:45.883Z,8.43
2022-11-07T22:29:48.613Z,4.70
2022-11-07T22:32:52.021Z,6.83
2022-11-07T22:35:55.800Z,9.67
2022-11-07T22:39:00.496Z,5.20
2022-11-07T22:42:03.386Z,6.33
2022-11-07T22:45:07.412Z,4.37
2022-11-07T22:48:10.191Z,5.47
2022-11-07T22:51:14.515Z,9.37
2022-11-07T22:54:18.640Z,8.57
2022-11-07T22:57:22.373Z,8.67
2022-11-07T23:00:25.108Z,5.70
2022-11-07T23:03:28.547Z,7.03
2022-11-07T23:06:31.563Z,5.30
2022-11-07T23:09:35.703Z,8.43
2022-11-07T23:12:38.625Z,5.63
2022-11-07T23:15:41.428Z,6.47
2022-11-07T23:18:44.175Z,4.50
2022-11-07T23:21:47.231Z,5.80
2022-11-07T23:24:51.907Z,5.00
2022-11-07T23:28:07.453Z,5.07
2022-11-07T23:31:14.259Z,4.97
2022-11-07T23:34:18.462Z,4.53
2022-11-07T23:37:23.253Z,5.10
2022-11-07T23:40:27.401Z,7.37
2022-11-07T23:43:30.867Z,7.07
2022-11-07T23:46:54.901Z,6.10
2022-11-07T23:50:15.482Z,5.27
2022-11-07T23:53:36.087Z,5.83
2022-11-07T23:56:40.470Z,5.03
